Time;durP1;ratioP1;P1;durP2;ratioP2;P2;SDS_P1;SDS_P2;PMS_P1;PMS_P2;Temp;Humidity;BMP_temperature;BMP_pressure;BME280_temperature;BME280_humidity;BME280_pressure;Samples;Min_cycle;Max_cycle;Signal;HPM_P1;HPM_P2
2021/05/09 00:00:21;;;;;;;1.70;1.60;;;16.30;59.40;;;;;;4735419;30;20063;-91
2021/05/09 00:02:47;;;;;;;2.20;1.52;;;16.30;59.50;;;;;;4749963;30;20325;-91
2021/05/09 00:05:14;;;;;;;2.25;1.67;;;16.30;59.40;;;;;;4736267;30;20601;-92
2021/05/09 00:07:39;;;;;;;2.67;1.85;;;16.20;59.40;;;;;;4751688;30;20049;-92
2021/05/09 00:10:09;;;;;;;1.92;1.60;;;16.20;59.40;;;;;;4736189;30;20066;-91
2021/05/09 00:12:35;;;;;;;2.55;1.88;;;16.20;59.40;;;;;;4752269;30;20036;-91
2021/05/09 00:15:00;;;;;;;2.00;1.60;;;16.20;59.40;;;;;;4736549;30;20443;-91
2021/05/09 00:17:26;;;;;;;2.45;1.50;;;16.20;59.40;;;;;;4750848;30;20053;-91
2021/05/09 00:19:52;;;;;;;2.28;1.55;;;16.20;59.40;;;;;;4735935;30;20114;-91
2021/05/09 00:22:17;;;;;;;2.28;1.70;;;16.20;59.40;;;;;;4736384;30;20042;-92
2021/05/09 00:24:43;;;;;;;2.00;1.70;;;16.10;59.30;;;;;;4750812;30;20044;-90
2021/05/09 00:27:09;;;;;;;2.38;1.77;;;16.10;59.30;;;;;;4720843;30;20486;-91
2021/05/09 00:29:35;;;;;;;2.53;1.63;;;16.10;59.30;;;;;;4721468;30;20046;-91
2021/05/09 00:32:00;;;;;;;1.85;1.50;;;16.10;59.30;;;;;;4750588;30;20159;-92
2021/05/09 00:34:26;;;;;;;2.10;1.85;;;16.10;59.30;;;;;;4735982;30;20457;-90
2021/05/09 00:36:52;;;;;;;2.50;1.83;;;16.10;59.30;;;;;;4721494;30;20044;-92
2021/05/09 00:39:18;;;;;;;2.13;1.70;;;16.10;59.30;;;;;;4736514;30;20543;-92
2021/05/09 00:41:43;;;;;;;2.15;1.60;;;16.10;59.30;;;;;;4751088;30;20127;-93
2021/05/09 00:44:09;;;;;;;2.33;1.73;;;16.10;59.30;;;;;;4750913;30;20039;-91
2021/05/09 00:46:36;;;;;;;3.83;1.80;;;16.00;59.20;;;;;;4723639;30;20063;-92
2021/05/09 00:49:02;;;;;;;2.60;1.80;;;16.00;59.30;;;;;;4740298;30;20035;-92
2021/05/09 00:51:28;;;;;;;2.67;1.70;;;16.00;59.30;;;;;;4739710;30;20066;-91
2021/05/09 00:53:56;;;;;;;1.98;1.50;;;16.00;59.30;;;;;;4737773;30;20486;-91
2021/05/09 00:56:24;;;;;;;2.30;1.67;;;16.00;59.30;;;;;;4738560;30;20039;-91
2021/05/09 00:58:51;;;;;;;1.50;1.40;;;16.00;59.30;;;;;;4753835;30;20036;-91
2021/05/09 01:01:19;;;;;;;2.03;1.63;;;16.00;59.30;;;;;;4724689;30;20040;-91
2021/05/09 01:03:47;;;;;;;1.70;1.60;;;15.90;59.20;;;;;;4739251;30;20032;-92
2021/05/09 01:06:13;;;;;;;2.55;1.60;;;15.90;59.20;;;;;;4757154;30;20119;-91
2021/05/09 01:08:39;;;;;;;2.03;1.60;;;15.90;59.20;;;;;;4738760;30;20048;-91
2021/05/09 01:11:07;;;;;;;1.80;1.60;;;15.90;59.20;;;;;;4753733;30;20138;-91
2021/05/09 01:13:34;;;;;;;1.92;1.67;;;15.90;59.30;;;;;;4739136;30;20070;-91
2021/05/09 01:16:00;;;;;;;1.50;1.40;;;15.90;59.30;;;;;;4754573;30;20035;-91
2021/05/09 01:18:28;;;;;;;2.15;1.58;;;15.90;59.20;;;;;;4739165;30;20060;-91
2021/05/09 01:20:54;;;;;;;1.77;1.48;;;15.80;59.20;;;;;;4754312;30;20040;-91
2021/05/09 01:23:20;;;;;;;1.75;1.60;;;15.80;59.20;;;;;;4737831;30;20054;-91
2021/05/09 01:25:46;;;;;;;1.73;1.55;;;15.80;59.90;;;;;;4738532;30;20028;-91
2021/05/09 01:28:12;;;;;;;1.95;1.70;;;15.80;59.20;;;;;;4723338;30;20182;-90
2021/05/09 01:30:38;;;;;;;2.28;1.48;;;15.80;59.20;;;;;;4738214;30;20467;-90
2021/05/09 01:33:05;;;;;;;2.45;1.58;;;15.80;59.20;;;;;;4738887;30;20069;-90
2021/05/09 01:35:31;;;;;;;2.35;1.52;;;15.80;59.20;;;;;;4754266;30;20028;-91
2021/05/09 01:37:57;;;;;;;2.65;1.48;;;15.70;59.20;;;;;;4724197;30;20052;-91
2021/05/09 01:40:23;;;;;;;1.70;1.45;;;15.70;59.20;;;;;;4738662;30;20048;-91
2021/05/09 01:42:50;;;;;;;1.65;1.45;;;15.70;59.20;;;;;;4738703;30;20037;-91
2021/05/09 01:45:17;;;;;;;1.75;1.60;;;15.70;59.20;;;;;;4752877;30;20068;-91
2021/05/09 01:47:44;;;;;;;1.60;1.48;;;15.70;59.20;;;;;;4738827;30;20105;-91
2021/05/09 01:50:16;;;;;;;1.88;1.60;;;15.70;59.20;;;;;;4753245;30;20427;-91
2021/05/09 01:52:43;;;;;;;2.28;1.45;;;15.70;59.20;;;;;;4753096;30;20036;-91
2021/05/09 01:55:19;;;;;;;1.80;1.60;;;15.60;59.10;;;;;;4753929;30;20024;-91
2021/05/09 01:57:55;;;;;;;1.42;1.33;;;15.60;59.20;;;;;;4752229;30;20147;-91
2021/05/09 02:00:33;;;;;;;1.77;1.40;;;15.60;59.10;;;;;;4758580;30;20478;-90
2021/05/09 02:03:07;;;;;;;1.90;1.50;;;15.60;59.10;;;;;;4752037;30;20497;-91
2021/05/09 02:05:35;;;;;;;1.90;1.60;;;15.60;59.10;;;;;;4751988;30;20043;-90
2021/05/09 02:08:01;;;;;;;1.65;1.50;;;15.60;59.10;;;;;;4737754;30;20036;-91
2021/05/09 02:10:29;;;;;;;2.03;1.65;;;15.60;59.20;;;;;;4738599;30;20052;-91
2021/05/09 02:12:55;;;;;;;1.63;1.45;;;15.50;59.10;;;;;;4752296;30;20537;-91
2021/05/09 02:15:32;;;;;;;1.90;1.58;;;15.50;59.10;;;;;;4739527;30;20044;-91
2021/05/09 02:17:58;;;;;;;2.05;1.65;;;15.50;59.10;;;;;;4737332;30;20087;-90
2021/05/09 02:20:28;;;;;;;1.70;1.60;;;15.50;59.10;;;;;;4738150;30;20048;-90
2021/05/09 02:22:55;;;;;;;2.30;1.77;;;15.50;59.20;;;;;;4736876;30;20048;-91
2021/05/09 02:25:21;;;;;;;2.22;1.70;;;15.50;59.20;;;;;;4737495;30;20043;-90
2021/05/09 02:27:49;;;;;;;2.20;1.67;;;15.50;59.20;;;;;;4740092;30;20051;-91
2021/05/09 02:30:16;;;;;;;2.03;1.50;;;15.40;59.10;;;;;;4752143;30;20028;-91
2021/05/09 02:32:42;;;;;;;1.92;1.50;;;15.40;59.10;;;;;;4753759;30;20032;-91
2021/05/09 02:35:08;;;;;;;2.30;1.63;;;15.40;59.20;;;;;;4722865;30;20028;-91
2021/05/09 02:37:34;;;;;;;3.00;1.70;;;15.40;59.20;;;;;;4753443;30;20143;-91
2021/05/09 02:40:01;;;;;;;1.90;1.48;;;15.40;59.20;;;;;;4723048;30;20047;-91
2021/05/09 02:42:27;;;;;;;2.35;1.73;;;15.40;59.20;;;;;;4752421;30;20032;-91
2021/05/09 02:44:53;;;;;;;2.70;1.80;;;15.30;59.20;;;;;;4737721;30;20060;-90
2021/05/09 02:47:28;;;;;;;2.78;1.90;;;15.30;59.20;;;;;;4751073;30;20063;-90
2021/05/09 02:49:57;;;;;;;1.60;1.50;;;15.30;59.20;;;;;;4751064;30;20040;-91
2021/05/09 02:52:24;;;;;;;1.55;1.45;;;15.30;59.20;;;;;;4749201;30;20066;-90
2021/05/09 02:54:50;;;;;;;1.90;1.60;;;15.30;59.20;;;;;;4724471;30;20032;-90
2021/05/09 02:57:17;;;;;;;1.95;1.65;;;15.20;59.20;;;;;;4753218;30;20032;-90
2021/05/09 02:59:43;;;;;;;1.83;1.42;;;15.20;59.20;;;;;;4748670;30;20036;-90
2021/05/09 03:02:09;;;;;;;1.80;1.40;;;15.20;59.20;;;;;;4752842;30;20481;-91
2021/05/09 03:04:35;;;;;;;3.25;2.08;;;15.20;59.20;;;;;;4722581;30;20036;-90
2021/05/09 03:07:01;;;;;;;1.67;1.58;;;15.20;59.30;;;;;;4738499;30;20243;-91
2021/05/09 03:09:28;;;;;;;1.83;1.50;;;15.20;59.30;;;;;;4750160;30;20063;-91
2021/05/09 03:11:54;;;;;;;2.17;1.55;;;15.20;59.30;;;;;;4722291;30;20043;-90
2021/05/09 03:14:20;;;;;;;2.28;1.58;;;15.10;59.30;;;;;;4738639;30;20048;-91
2021/05/09 03:16:48;;;;;;;2.13;1.67;;;15.10;59.30;;;;;;4751661;30;20067;-90
2021/05/09 03:19:14;;;;;;;2.03;1.63;;;15.10;59.30;;;;;;4746037;30;20067;-90
2021/05/09 03:21:41;;;;;;;1.88;1.55;;;15.10;59.30;;;;;;4722084;30;20074;-89
2021/05/09 03:24:09;;;;;;;1.60;1.48;;;15.00;59.30;;;;;;4751644;30;20033;-89
2021/05/09 03:26:35;;;;;;;2.33;1.67;;;15.00;59.30;;;;;;4750822;30;20038;-90
2021/05/09 03:29:01;;;;;;;2.13;1.58;;;15.00;59.30;;;;;;4707632;30;20131;-89
2021/05/09 03:31:26;;;;;;;1.88;1.60;;;15.00;59.30;;;;;;4752353;30;20047;-91
2021/05/09 03:33:52;;;;;;;1.80;1.60;;;15.00;59.30;;;;;;4736832;30;20060;-91
2021/05/09 03:36:18;;;;;;;2.35;1.63;;;14.90;59.30;;;;;;4751054;30;20063;-91
2021/05/09 03:38:44;;;;;;;1.58;1.40;;;14.90;59.30;;;;;;4748126;30;20032;-91
2021/05/09 03:41:09;;;;;;;2.05;1.70;;;14.90;59.30;;;;;;4747536;30;20032;-91
2021/05/09 03:43:35;;;;;;;1.80;1.63;;;14.90;59.30;;;;;;4737060;30;20047;-91
2021/05/09 03:46:01;;;;;;;1.70;1.60;;;14.90;59.40;;;;;;4734573;30;20040;-91
2021/05/09 03:48:27;;;;;;;1.77;1.67;;;14.90;59.40;;;;;;4750720;30;20044;-90
2021/05/09 03:50:53;;;;;;;2.08;1.80;;;14.90;59.40;;;;;;4721748;30;20036;-90
2021/05/09 03:53:19;;;;;;;1.73;1.42;;;14.80;59.40;;;;;;4721657;30;20028;-90
2021/05/09 03:55:44;;;;;;;3.28;1.80;;;14.80;59.40;;;;;;4721494;30;20078;-91
2021/05/09 03:58:13;;;;;;;2.05;1.60;;;14.80;59.40;;;;;;4751748;30;20039;-89
2021/05/09 04:00:39;;;;;;;1.90;1.70;;;14.80;59.40;;;;;;4719992;30;20036;-90
2021/05/09 04:03:21;;;;;;;2.30;1.50;;;14.70;59.40;;;;;;4751255;30;20040;-90
2021/05/09 04:05:50;;;;;;;1.98;1.60;;;14.70;59.50;;;;;;4764269;30;20028;-90
2021/05/09 04:08:16;;;;;;;2.33;1.83;;;14.70;59.40;;;;;;4736570;30;20035;-89
2021/05/09 04:10:42;;;;;;;1.77;1.60;;;14.70;59.40;;;;;;4749997;30;20139;-90
2021/05/09 04:13:08;;;;;;;2.30;1.73;;;14.70;59.40;;;;;;4736381;30;20063;-90
2021/05/09 04:15:34;;;;;;;1.83;1.60;;;14.70;59.40;;;;;;4736525;30;20115;-89
2021/05/09 04:18:00;;;;;;;2.83;1.75;;;14.60;59.40;;;;;;4751870;30;20032;-90
2021/05/09 04:20:25;;;;;;;1.60;1.40;;;14.60;59.40;;;;;;4751583;30;20106;-90
2021/05/09 04:22:51;;;;;;;2.17;1.83;;;14.60;59.40;;;;;;4739584;30;20158;-90
2021/05/09 04:25:17;;;;;;;2.78;1.90;;;14.60;59.40;;;;;;4738888;30;20138;-90
2021/05/09 04:27:43;;;;;;;1.83;1.70;;;14.60;59.40;;;;;;4753832;30;20039;-91
2021/05/09 04:30:09;;;;;;;2.05;1.58;;;14.60;59.40;;;;;;4753040;30;20090;-90
2021/05/09 04:32:35;;;;;;;2.00;1.50;;;14.60;59.50;;;;;;4725037;30;20462;-92
2021/05/09 04:35:01;;;;;;;1.63;1.52;;;14.60;59.40;;;;;;4731508;30;20032;-88
2021/05/09 04:37:27;;;;;;;2.30;1.70;;;14.50;59.40;;;;;;4743561;30;20040;-90
2021/05/09 04:39:52;;;;;;;2.53;1.73;;;14.50;59.40;;;;;;4739671;30;20044;-90
2021/05/09 04:42:18;;;;;;;2.33;1.92;;;14.50;59.40;;;;;;4738990;30;20051;-89
2021/05/09 04:44:44;;;;;;;2.65;2.15;;;14.50;59.40;;;;;;4754410;30;20101;-89
2021/05/09 04:47:10;;;;;;;2.20;1.80;;;14.50;59.50;;;;;;4735549;30;20059;-90
2021/05/09 04:49:35;;;;;;;1.85;1.40;;;14.50;59.40;;;;;;4754202;30;20478;-91
2021/05/09 04:52:01;;;;;;;1.60;1.50;;;14.50;59.50;;;;;;4755747;30;20044;-90
2021/05/09 04:54:27;;;;;;;1.60;1.50;;;14.50;59.50;;;;;;4753608;30;20040;-89
2021/05/09 04:56:53;;;;;;;1.70;1.50;;;14.40;59.40;;;;;;4739505;30;20067;-90
2021/05/09 04:59:18;;;;;;;2.40;1.83;;;14.40;59.40;;;;;;4736433;30;20044;-91
2021/05/09 05:01:44;;;;;;;2.05;1.63;;;14.50;59.50;;;;;;4738223;30;20129;-91
2021/05/09 05:04:10;;;;;;;2.35;1.50;;;14.40;59.50;;;;;;4754204;30;20058;-90
2021/05/09 05:06:36;;;;;;;1.92;1.45;;;14.40;59.50;;;;;;4752082;30;20097;-91
2021/05/09 05:09:01;;;;;;;1.88;1.70;;;14.40;59.50;;;;;;4724659;30;20040;-90
2021/05/09 05:11:27;;;;;;;2.17;1.58;;;14.40;59.50;;;;;;4739022;30;20060;-89
2021/05/09 05:13:53;;;;;;;2.42;1.90;;;14.40;59.60;;;;;;4739134;30;20048;-91
2021/05/09 05:16:19;;;;;;;2.38;1.92;;;14.40;59.60;;;;;;4724308;30;20185;-90
2021/05/09 05:18:45;;;;;;;1.75;1.60;;;14.40;59.70;;;;;;4723571;30;20041;-90
2021/05/09 05:21:11;;;;;;;2.15;1.60;;;14.40;59.80;;;;;;4738582;30;20050;-90
2021/05/09 05:23:37;;;;;;;1.90;1.70;;;14.40;59.80;;;;;;4738936;30;20123;-90
2021/05/09 05:26:04;;;;;;;2.70;1.70;;;14.40;59.80;;;;;;4723543;30;20122;-92
2021/05/09 05:28:30;;;;;;;2.03;1.58;;;14.40;59.80;;;;;;4724196;30;20050;-90
2021/05/09 05:30:56;;;;;;;1.88;1.67;;;14.40;60.50;;;;;;4753367;30;20127;-90
2021/05/09 05:33:33;;;;;;;2.17;1.77;;;14.40;59.90;;;;;;4737911;30;20036;-90
2021/05/09 05:36:00;;;;;;;2.08;1.73;;;14.40;60.00;;;;;;4753285;30;20066;-90
2021/05/09 05:38:26;;;;;;;2.22;1.92;;;14.40;60.00;;;;;;4739001;30;20040;-91
2021/05/09 05:40:55;;;;;;;2.20;1.70;;;14.40;60.00;;;;;;4753451;30;20040;-92
2021/05/09 05:43:23;;;;;;;2.40;1.85;;;14.40;60.10;;;;;;4753071;30;20032;-90
2021/05/09 05:45:53;;;;;;;2.55;2.03;;;14.40;60.10;;;;;;4753060;30;20048;-90
2021/05/09 05:48:20;;;;;;;1.88;1.67;;;14.40;60.20;;;;;;4737106;30;20042;-90
2021/05/09 05:50:46;;;;;;;2.85;1.98;;;14.40;60.30;;;;;;4751928;30;20056;-90
2021/05/09 05:53:12;;;;;;;2.35;2.00;;;14.40;60.30;;;;;;4752473;30;20036;-91
2021/05/09 05:55:37;;;;;;;2.60;1.90;;;14.40;60.30;;;;;;4753309;30;20059;-90
2021/05/09 05:58:03;;;;;;;1.70;1.60;;;14.40;60.40;;;;;;4738338;30;20406;-91
2021/05/09 06:00:29;;;;;;;2.13;1.70;;;14.40;60.40;;;;;;4738514;30;20135;-90
2021/05/09 06:02:55;;;;;;;2.15;1.75;;;14.50;60.50;;;;;;4709242;30;20065;-90
2021/05/09 06:05:21;;;;;;;2.70;2.00;;;14.50;60.60;;;;;;4736785;30;20439;-92
2021/05/09 06:07:46;;;;;;;3.47;2.20;;;14.50;60.60;;;;;;4750145;30;20088;-91
2021/05/09 06:10:12;;;;;;;4.20;1.77;;;14.50;60.60;;;;;;4754420;30;20056;-90
2021/05/09 06:12:38;;;;;;;1.98;1.70;;;14.50;60.70;;;;;;4737512;30;20035;-91
2021/05/09 06:15:05;;;;;;;2.50;1.70;;;14.50;61.30;;;;;;4730715;30;20061;-91
2021/05/09 06:17:31;;;;;;;1.85;1.55;;;14.50;60.70;;;;;;4753206;30;20117;-91
2021/05/09 06:19:56;;;;;;;1.90;1.60;;;14.60;60.70;;;;;;4737445;30;20074;-91
2021/05/09 06:22:22;;;;;;;2.28;1.63;;;14.60;60.80;;;;;;4723076;30;20033;-91
2021/05/09 06:24:48;;;;;;;3.22;1.83;;;14.60;60.70;;;;;;4723511;30;20445;-93
2021/05/09 06:27:14;;;;;;;2.53;1.73;;;14.60;60.80;;;;;;4737357;30;20449;-92
2021/05/09 06:29:39;;;;;;;2.35;1.77;;;14.60;60.80;;;;;;4738305;30;20035;-91
2021/05/09 06:32:07;;;;;;;2.22;1.70;;;14.70;60.80;;;;;;4737410;30;20467;-92
2021/05/09 06:34:33;;;;;;;2.67;1.88;;;14.70;60.90;;;;;;4752717;30;20036;-92
2021/05/09 06:36:59;;;;;;;2.08;1.70;;;14.70;60.90;;;;;;4751938;30;20521;-91
2021/05/09 06:39:28;;;;;;;1.88;1.67;;;14.70;60.90;;;;;;4735502;30;20525;-93
2021/05/09 06:41:58;;;;;;;2.22;1.70;;;14.70;60.90;;;;;;4737581;30;20051;-92
2021/05/09 06:44:28;;;;;;;3.42;1.80;;;14.80;60.90;;;;;;4750099;30;20044;-88
2021/05/09 06:46:53;;;;;;;2.20;1.70;;;14.80;60.90;;;;;;4737585;30;20110;-94
2021/05/09 06:49:19;;;;;;;1.85;1.48;;;14.80;60.90;;;;;;4737631;30;20448;-93
2021/05/09 06:51:45;;;;;;;2.13;1.70;;;14.80;61.00;;;;;;4735037;30;20044;-96
2021/05/09 06:54:11;;;;;;;3.00;1.70;;;14.90;61.10;;;;;;4753566;30;20047;-94
2021/05/09 06:56:36;;;;;;;2.35;1.60;;;14.90;61.10;;;;;;4738786;30;20036;-93
2021/05/09 06:59:03;;;;;;;2.30;1.80;;;14.90;61.10;;;;;;4756697;30;20061;-92
2021/05/09 07:01:30;;;;;;;2.85;1.85;;;14.90;61.20;;;;;;4737842;30;20501;-93
2021/05/09 07:03:56;;;;;;;2.67;2.00;;;15.00;61.30;;;;;;4736379;30;20111;-91
2021/05/09 07:06:22;;;;;;;2.67;1.85;;;15.00;61.30;;;;;;4751270;30;20277;-92
2021/05/09 07:08:47;;;;;;;1.50;1.40;;;15.00;61.30;;;;;;4737247;30;20040;-93
2021/05/09 07:11:13;;;;;;;2.13;1.60;;;15.10;61.40;;;;;;4752959;30;20067;-94
2021/05/09 07:13:39;;;;;;;1.92;1.60;;;15.10;61.40;;;;;;4737833;30;20401;-93
2021/05/09 07:16:05;;;;;;;2.15;1.60;;;15.10;61.40;;;;;;4750378;30;20481;-92
2021/05/09 07:18:32;;;;;;;2.20;1.60;;;15.20;61.50;;;;;;4737818;30;20483;-91
2021/05/09 07:20:59;;;;;;;1.92;1.65;;;15.20;62.10;;;;;;4752668;30;20044;-93
2021/05/09 07:23:26;;;;;;;2.70;1.92;;;15.20;61.50;;;;;;4737144;30;20036;-92
2021/05/09 07:25:53;;;;;;;2.22;1.75;;;15.30;61.50;;;;;;4752183;30;20074;-91
2021/05/09 07:28:20;;;;;;;1.58;1.42;;;15.30;61.50;;;;;;4749159;30;20368;-94
2021/05/09 07:30:46;;;;;;;2.17;1.60;;;15.40;61.50;;;;;;4737799;30;20046;-92
2021/05/09 07:33:13;;;;;;;1.77;1.52;;;15.40;61.40;;;;;;4746154;30;20036;-95
2021/05/09 07:35:40;;;;;;;1.70;1.50;;;15.50;61.50;;;;;;4752040;30;20044;-94
2021/05/09 07:38:08;;;;;;;2.10;1.45;;;15.50;61.50;;;;;;4736000;30;20040;-94
2021/05/09 07:40:34;;;;;;;1.70;1.60;;;15.50;61.40;;;;;;4722447;30;20048;-94
2021/05/09 07:43:00;;;;;;;3.00;1.55;;;15.60;61.40;;;;;;4736813;30;20086;-91
2021/05/09 07:45:26;;;;;;;1.38;1.27;;;15.60;61.30;;;;;;4752058;30;20036;-90
2021/05/09 07:47:52;;;;;;;1.88;1.50;;;15.70;61.30;;;;;;4737988;30;20042;-96
2021/05/09 07:50:19;;;;;;;2.28;1.67;;;15.70;61.30;;;;;;4736668;30;20123;-89
2021/05/09 07:52:46;;;;;;;1.90;1.58;;;15.80;61.30;;;;;;4735583;30;20044;-94
2021/05/09 07:55:13;;;;;;;1.58;1.42;;;15.80;61.30;;;;;;4750917;30;20040;-89
2021/05/09 07:57:39;;;;;;;1.73;1.52;;;15.90;61.30;;;;;;4751686;30;20505;-90
2021/05/09 08:00:08;;;;;;;1.83;1.50;;;16.00;61.20;;;;;;4736637;30;20044;-91
2021/05/09 08:02:41;;;;;;;1.60;1.50;;;16.00;61.20;;;;;;4752048;30;20053;-87
2021/05/09 08:05:08;;;;;;;2.03;1.35;;;16.10;61.10;;;;;;4751076;30;20093;-86
2021/05/09 08:07:34;;;;;;;2.08;1.50;;;16.10;61.10;;;;;;4735107;30;20086;-86
2021/05/09 08:10:00;;;;;;;1.77;1.50;;;16.30;61.10;;;;;;4736192;30;20498;-85
2021/05/09 08:12:25;;;;;;;1.67;1.33;;;16.30;61.00;;;;;;4734982;30;20036;-84
2021/05/09 08:14:51;;;;;;;1.77;1.30;;;16.40;61.00;;;;;;4733868;30;20487;-84
2021/05/09 08:17:17;;;;;;;1.42;1.30;;;16.40;61.00;;;;;;4733889;30;20461;-85
2021/05/09 08:19:43;;;;;;;1.75;1.42;;;16.50;61.00;;;;;;4745206;30;20048;-84
2021/05/09 08:22:09;;;;;;;2.53;1.73;;;16.60;61.00;;;;;;4717338;30;20089;-84
2021/05/09 08:24:35;;;;;;;2.25;1.70;;;16.70;61.00;;;;;;4736201;30;20050;-86
2021/05/09 08:27:00;;;;;;;2.72;1.70;;;16.80;61.00;;;;;;4735913;30;20093;-85
2021/05/09 08:29:26;;;;;;;2.28;1.35;;;16.90;61.00;;;;;;4735517;30;20131;-84
2021/05/09 08:31:52;;;;;;;1.67;1.35;;;17.00;60.90;;;;;;4735908;30;20445;-83
2021/05/09 08:34:18;;;;;;;1.65;1.48;;;17.10;60.90;;;;;;4735226;30;20677;-95
2021/05/09 08:36:43;;;;;;;2.50;1.55;;;17.20;60.80;;;;;;4749625;30;20051;-91
2021/05/09 08:39:09;;;;;;;2.67;1.83;;;17.30;60.80;;;;;;4748064;30;20120;-82
2021/05/09 08:41:40;;;;;;;2.20;1.38;;;17.40;60.80;;;;;;4745835;30;20078;-89
2021/05/09 08:44:10;;;;;;;1.80;1.45;;;17.50;60.90;;;;;;4722289;30;20028;-93
2021/05/09 08:46:37;;;;;;;1.83;1.63;;;17.50;60.90;;;;;;4742305;30;20043;-93
2021/05/09 08:49:06;;;;;;;1.75;1.40;;;17.70;60.90;;;;;;4751207;30;20139;-87
2021/05/09 08:51:32;;;;;;;1.67;1.38;;;17.80;60.90;;;;;;4753893;30;20028;-91
2021/05/09 08:53:59;;;;;;;2.35;1.55;;;17.90;60.90;;;;;;4749117;30;20119;-89
2021/05/09 08:56:26;;;;;;;2.50;1.60;;;18.00;60.90;;;;;;4747143;30;20081;-88
2021/05/09 08:58:52;;;;;;;2.03;1.50;;;18.10;60.80;;;;;;4740219;30;20666;-90
2021/05/09 09:01:18;;;;;;;1.40;1.25;;;18.20;60.70;;;;;;4759324;30;20112;-90
2021/05/09 09:03:44;;;;;;;2.70;1.60;;;18.30;60.70;;;;;;4751923;30;20107;-90
2021/05/09 09:06:15;;;;;;;3.35;1.90;;;18.40;60.70;;;;;;4751519;30;20047;-88
2021/05/09 09:09:00;;;;;;;1.90;1.70;;;18.50;61.40;;;;;;4755359;30;20041;-88
2021/05/09 09:11:29;;;;;;;2.83;1.60;;;18.60;61.80;;;;;;4726311;30;20467;-88
2021/05/09 09:14:11;;;;;;;2.88;1.67;;;18.80;61.60;;;;;;4753653;30;20060;-87
2021/05/09 09:16:38;;;;;;;2.50;1.60;;;18.90;61.70;;;;;;4755866;30;20040;-86
2021/05/09 09:19:09;;;;;;;1.80;1.40;;;19.00;61.40;;;;;;4743424;30;20058;-87
2021/05/09 09:21:35;;;;;;;2.03;1.38;;;19.20;61.60;;;;;;4753297;30;20069;-87
2021/05/09 09:24:05;;;;;;;1.88;1.45;;;19.20;61.40;;;;;;4739077;30;20033;-92
2021/05/09 09:26:43;;;;;;;2.35;1.63;;;19.40;61.20;;;;;;4747817;30;20040;-92
2021/05/09 09:29:32;;;;;;;3.42;1.52;;;19.40;61.00;;;;;;4748584;30;20036;-89
2021/05/09 09:31:59;;;;;;;2.08;1.35;;;19.50;61.20;;;;;;4750542;30;20024;-90
2021/05/09 09:34:44;;;;;;;2.25;1.77;;;19.60;60.90;;;;;;4756288;30;20062;-91
2021/05/09 09:37:12;;;;;;;1.75;1.38;;;19.80;61.00;;;;;;4754436;30;20032;-92
2021/05/09 09:39:58;;;;;;;1.77;1.48;;;19.90;61.60;;;;;;4738946;30;20037;-91
2021/05/09 09:42:50;;;;;;;1.77;1.52;;;20.00;61.10;;;;;;4754002;30;20090;-94
2021/05/09 09:45:21;;;;;;;1.80;1.50;;;20.10;61.00;;;;;;4738257;30;20044;-86
2021/05/09 09:48:03;;;;;;;3.22;1.95;;;20.20;60.70;;;;;;4753141;30;20036;-87
2021/05/09 09:50:47;;;;;;;1.67;1.40;;;20.30;60.80;;;;;;4746571;30;20368;-87
2021/05/09 09:53:31;;;;;;;1.95;1.55;;;20.40;60.80;;;;;;4753273;30;20040;-86
2021/05/09 09:56:17;;;;;;;2.20;1.60;;;20.50;60.70;;;;;;4753144;30;20032;-86
2021/05/09 09:58:53;;;;;;;1.38;1.27;;;20.60;60.60;;;;;;4753884;30;20040;-86
2021/05/09 10:01:30;;;;;;;1.58;1.48;;;20.70;60.50;;;;;;4765497;30;20040;-87
2021/05/09 10:03:58;;;;;;;1.95;1.42;;;20.80;60.50;;;;;;4754148;30;20089;-86
2021/05/09 10:06:25;;;;;;;2.35;1.50;;;20.90;60.30;;;;;;4738253;30;20103;-86
2021/05/09 10:08:52;;;;;;;1.60;1.23;;;20.90;60.20;;;;;;4738390;30;20048;-87
2021/05/09 10:11:20;;;;;;;1.85;1.30;;;21.00;60.20;;;;;;4751610;30;20056;-85
2021/05/09 10:13:49;;;;;;;2.00;1.50;;;21.10;60.10;;;;;;4752708;30;20502;-91
2021/05/09 10:16:20;;;;;;;1.83;1.48;;;21.10;60.10;;;;;;4747577;30;20101;-92
2021/05/09 10:18:49;;;;;;;1.48;1.33;;;21.20;60.10;;;;;;4752023;30;20043;-86
2021/05/09 10:21:15;;;;;;;1.30;1.20;;;21.30;60.00;;;;;;4751768;30;20061;-87
2021/05/09 10:24:09;;;;;;;1.25;1.15;;;21.30;59.90;;;;;;4737604;30;20044;-88
2021/05/09 10:26:50;;;;;;;1.20;1.10;;;21.40;60.10;;;;;;4752157;30;20032;-87
2021/05/09 10:29:37;;;;;;;1.60;1.33;;;21.50;60.10;;;;;;4752388;30;20378;-87
2021/05/09 10:32:19;;;;;;;2.15;1.35;;;21.60;60.10;;;;;;4752376;30;20036;-86
2021/05/09 10:34:51;;;;;;;1.88;1.45;;;21.60;60.00;;;;;;4752177;30;20044;-87
2021/05/09 10:37:35;;;;;;;1.33;1.00;;;21.80;60.20;;;;;;4753249;30;20063;-86
2021/05/09 10:40:30;;;;;;;1.60;1.30;;;21.80;60.20;;;;;;4752345;30;20474;-86
2021/05/09 10:43:07;;;;;;;;;;;22.00;60.10;;;;;;4752526;30;20123;-85
2021/05/09 10:45:33;;;;;;;1.20;1.10;;;22.00;59.90;;;;;;4752000;30;19921;-86
2021/05/09 10:48:33;;;;;;;1.33;1.23;;;22.10;59.90;;;;;;4750964;30;20028;-90
2021/05/09 10:51:02;;;;;;;1.30;1.20;;;22.20;60.30;;;;;;4750119;30;20036;-90
2021/05/09 10:53:31;;;;;;;1.65;1.30;;;22.30;60.20;;;;;;4751457;30;20032;-89
2021/05/09 10:55:57;;;;;;;1.60;1.15;;;22.40;60.20;;;;;;4752097;30;20039;-91
2021/05/09 10:58:51;;;;;;;1.80;1.50;;;22.50;60.10;;;;;;4737010;30;20040;-88
2021/05/09 11:01:32;;;;;;;1.95;1.50;;;22.50;60.20;;;;;;4762051;30;20032;-82
2021/05/09 11:03:59;;;;;;;1.40;1.30;;;22.60;60.00;;;;;;4762009;30;20528;-83
2021/05/09 11:06:27;;;;;;;1.63;1.33;;;22.70;60.00;;;;;;4736551;30;20555;-84
2021/05/09 11:08:58;;;;;;;1.83;1.25;;;22.70;60.00;;;;;;4761325;30;20128;-85
2021/05/09 11:11:27;;;;;;;2.28;1.23;;;22.80;60.00;;;;;;4745642;30;20524;-85
2021/05/09 11:13:59;;;;;;;1.90;1.33;;;22.90;59.90;;;;;;4763547;30;20048;-82
2021/05/09 11:16:30;;;;;;;2.05;1.40;;;23.00;59.80;;;;;;4752577;30;20036;-94
2021/05/09 11:19:17;;;;;;;1.48;1.20;;;23.00;59.60;;;;;;4750225;30;20028;-95
2021/05/09 11:21:51;;;;;;;2.13;1.45;;;23.00;59.60;;;;;;4749920;30;20040;-91
2021/05/09 11:24:25;;;;;;;1.35;1.10;;;23.10;59.40;;;;;;4748141;30;20024;-87
2021/05/09 11:26:55;;;;;;;1.50;1.20;;;23.10;59.30;;;;;;4750164;30;20032;-86
2021/05/09 11:29:23;;;;;;;1.60;1.42;;;23.20;59.30;;;;;;4751491;30;20500;-87
2021/05/09 11:31:54;;;;;;;1.40;1.15;;;23.20;59.20;;;;;;4736147;30;20031;-88
2021/05/09 11:34:22;;;;;;;1.50;1.08;;;23.20;59.20;;;;;;4751759;30;20485;-87
2021/05/09 11:36:53;;;;;;;2.47;1.45;;;23.30;59.20;;;;;;4749212;30;20024;-87
2021/05/09 11:39:28;;;;;;;1.30;1.20;;;23.30;59.20;;;;;;4737221;30;20097;-88
2021/05/09 11:42:04;;;;;;;3.17;1.40;;;23.30;59.10;;;;;;4751584;30;20115;-90
2021/05/09 11:44:40;;;;;;;1.35;1.13;;;23.30;59.10;;;;;;4751215;30;20036;-89
2021/05/09 11:47:08;;;;;;;1.60;1.20;;;23.40;59.10;;;;;;4752271;30;20062;-87
2021/05/09 11:49:35;;;;;;;3.35;1.30;;;23.40;59.00;;;;;;4758676;30;20066;-87
2021/05/09 11:52:20;;;;;;;2.75;1.38;;;23.50;59.00;;;;;;4756573;30;20029;-88
2021/05/09 11:54:54;;;;;;;1.15;1.05;;;23.50;59.00;;;;;;4752287;30;20028;-88
2021/05/09 11:57:22;;;;;;;1.60;1.27;;;23.50;58.90;;;;;;4763957;30;20036;-87
2021/05/09 11:59:49;;;;;;;1.17;1.08;;;23.50;58.90;;;;;;4751270;30;20038;-89
2021/05/09 12:02:21;;;;;;;1.35;1.17;;;23.60;58.90;;;;;;4737198;30;20040;-87
2021/05/09 12:04:57;;;;;;;1.27;1.10;;;23.60;58.90;;;;;;4751184;30;20036;-87
2021/05/09 12:07:25;;;;;;;1.42;1.27;;;23.60;58.90;;;;;;4751187;30;20555;-87
2021/05/09 12:09:57;;;;;;;1.58;1.40;;;23.70;58.90;;;;;;4751213;30;20328;-87
2021/05/09 12:12:26;;;;;;;1.40;1.20;;;23.70;58.90;;;;;;4750779;30;20048;-89
2021/05/09 12:14:53;;;;;;;1.20;1.10;;;23.70;58.80;;;;;;4752299;30;20482;-87
2021/05/09 12:17:20;;;;;;;1.67;1.25;;;23.70;59.40;;;;;;4751301;30;20104;-87
2021/05/09 12:19:46;;;;;;;1.38;1.27;;;23.80;58.90;;;;;;4752060;30;20044;-87
2021/05/09 12:22:12;;;;;;;2.17;1.30;;;23.80;58.80;;;;;;4736823;30;20128;-86
2021/05/09 12:24:56;;;;;;;1.27;1.17;;;23.80;58.80;;;;;;4751231;30;20047;-88
2021/05/09 12:27:25;;;;;;;1.65;1.33;;;23.80;58.90;;;;;;4722031;30;20094;-88
2021/05/09 12:29:53;;;;;;;1.25;1.13;;;23.90;58.80;;;;;;4751248;30;20032;-87
2021/05/09 12:32:22;;;;;;;1.45;1.10;;;23.90;58.80;;;;;;4751073;30;20440;-87
2021/05/09 12:35:08;;;;;;;1.20;1.10;;;23.90;58.80;;;;;;4750903;30;20101;-87
2021/05/09 12:37:41;;;;;;;1.25;1.15;;;23.90;58.90;;;;;;4752842;30;20087;-89
2021/05/09 12:40:18;;;;;;;1.40;1.20;;;24.00;58.80;;;;;;4763227;30;20051;-85
2021/05/09 12:43:00;;;;;;;1.40;1.25;;;23.90;58.90;;;;;;4762926;30;20033;-87
2021/05/09 12:45:36;;;;;;;1.77;1.40;;;24.00;58.90;;;;;;4755654;30;20107;-87
2021/05/09 12:48:13;;;;;;;1.50;1.25;;;24.00;58.80;;;;;;4748855;30;20044;-88
2021/05/09 12:51:05;;;;;;;1.20;1.10;;;24.00;58.80;;;;;;4755462;30;20497;-87
2021/05/09 12:53:37;;;;;;;1.33;1.23;;;24.00;58.90;;;;;;4754011;30;20489;-87
2021/05/09 12:56:25;;;;;;;1.80;1.30;;;24.10;58.90;;;;;;4754268;30;20390;-88